createdAt,value
2023-05-23T00:00:55.854Z,1014.45
2023-05-23T00:01:55.824Z,1014.48
2023-05-23T00:02:56.069Z,1014.51
2023-05-23T00:03:55.827Z,1014.50
2023-05-23T00:04:55.777Z,1014.47
2023-05-23T00:05:55.820Z,1014.47
2023-05-23T00:06:55.707Z,1014.47
2023-05-23T00:07:55.800Z,1014.54
2023-05-23T00:08:55.735Z,1014.54
2023-05-23T00:09:55.718Z,1014.51
2023-05-23T00:10:55.597Z,1014.54
2023-05-23T00:11:55.631Z,1014.56
2023-05-23T00:12:55.567Z,1014.55
2023-05-23T00:13:55.640Z,1014.52
2023-05-23T00:14:55.521Z,1014.52
2023-05-23T00:15:55.551Z,1014.53
2023-05-23T00:16:55.596Z,1014.53
2023-05-23T00:17:55.530Z,1014.56
2023-05-23T00:18:55.475Z,1014.57
2023-05-23T00:19:55.406Z,1014.62
2023-05-23T00:20:55.485Z,1014.59
2023-05-23T00:21:55.381Z,1014.62
2023-05-23T00:22:55.354Z,1014.62
2023-05-23T00:23:55.409Z,1014.63
2023-05-23T00:24:55.395Z,1014.66
2023-05-23T00:25:55.324Z,1014.62
2023-05-23T00:26:55.265Z,1014.67
2023-05-23T00:27:55.369Z,1014.68
2023-05-23T00:28:55.223Z,1014.68
2023-05-23T00:29:55.244Z,1014.68
2023-05-23T00:30:55.187Z,1014.76
2023-05-23T00:31:55.263Z,1014.74
2023-05-23T00:32:55.219Z,1014.71
2023-05-23T00:33:55.174Z,1014.76
2023-05-23T00:34:55.101Z,1014.81
2023-05-23T00:35:55.200Z,1014.76
2023-05-23T00:36:55.054Z,1014.78
2023-05-23T00:37:55.112Z,1014.81
2023-05-23T00:38:55.015Z,1014.76
2023-05-23T00:39:55.010Z,1014.76
2023-05-23T00:40:54.984Z,1014.78
2023-05-23T00:41:55.027Z,1014.78
2023-05-23T00:42:54.944Z,1014.75
2023-05-23T00:43:55.958Z,1014.80
2023-05-23T00:44:54.897Z,1014.83
2023-05-23T00:45:54.876Z,1014.80
2023-05-23T00:46:54.985Z,1014.84
2023-05-23T00:47:54.907Z,1014.88
2023-05-23T00:48:54.812Z,1014.85
2023-05-23T00:49:54.892Z,1014.82
2023-05-23T00:50:54.781Z,1014.80
2023-05-23T00:51:54.800Z,1014.83
2023-05-23T00:52:54.756Z,1014.88
2023-05-23T00:53:54.817Z,1014.84
2023-05-23T00:54:54.687Z,1014.86
2023-05-23T00:55:54.745Z,1014.85
2023-05-23T00:56:54.817Z,1014.81
2023-05-23T00:57:54.636Z,1014.86
2023-05-23T00:58:54.642Z,1014.83
2023-05-23T00:59:54.583Z,1014.81
2023-05-23T01:00:54.657Z,1014.86
2023-05-23T01:01:54.592Z,1014.86
2023-05-23T01:02:54.687Z,1014.82
2023-05-23T01:03:54.572Z,1014.83
2023-05-23T01:04:54.630Z,1014.76
2023-05-23T01:05:54.472Z,1014.82
2023-05-23T01:06:54.503Z,1014.79
2023-05-23T01:07:54.420Z,1014.86
2023-05-23T01:08:54.383Z,1014.88
2023-05-23T01:09:54.411Z,1014.85
2023-05-23T01:10:54.347Z,1014.86
2023-05-23T01:11:54.426Z,1014.88
2023-05-23T01:12:54.413Z,1014.86
2023-05-23T01:13:54.336Z,1014.88
2023-05-23T01:14:54.256Z,1014.86
2023-05-23T01:15:54.389Z,1014.87
2023-05-23T01:16:54.267Z,1014.83
2023-05-23T01:17:54.300Z,1014.89
2023-05-23T01:18:54.191Z,1014.93
2023-05-23T01:19:54.155Z,1014.90
2023-05-23T01:20:54.150Z,1014.91
2023-05-23T01:21:54.201Z,1014.88
2023-05-23T01:22:54.104Z,1014.87
2023-05-23T01:23:54.099Z,1014.89
2023-05-23T01:24:54.048Z,1014.89
2023-05-23T01:25:54.027Z,1014.91
2023-05-23T01:26:54.010Z,1014.92
2023-05-23T01:27:54.026Z,1014.95
2023-05-23T01:28:54.056Z,1014.92
2023-05-23T01:29:54.045Z,1014.92
2023-05-23T01:30:53.921Z,1014.94
2023-05-23T01:31:53.921Z,1014.98
2023-05-23T01:32:54.061Z,1014.96
2023-05-23T01:33:53.867Z,1014.96
2023-05-23T01:34:53.887Z,1014.98
2023-05-23T01:35:53.817Z,1014.98
2023-05-23T01:36:53.916Z,1014.98
2023-05-23T01:37:53.784Z,1014.94
2023-05-23T01:38:53.804Z,1014.99
2023-05-23T01:39:53.971Z,1014.98
2023-05-23T01:40:53.817Z,1015.00
2023-05-23T01:41:53.699Z,1014.99
2023-05-23T01:42:53.685Z,1014.97
2023-05-23T01:43:53.647Z,1014.92
2023-05-23T01:44:53.736Z,1015.00
2023-05-23T01:45:53.638Z,1014.97
2023-05-23T01:46:53.659Z,1015.02
2023-05-23T01:47:53.596Z,1014.99
2023-05-23T01:48:53.558Z,1014.98
2023-05-23T01:49:53.553Z,1014.99
2023-05-23T01:50:53.590Z,1014.97
2023-05-23T01:51:53.494Z,1014.96
2023-05-23T01:52:53.508Z,1014.96
2023-05-23T01:53:53.440Z,1014.95
2023-05-23T01:54:53.422Z,1015.01
2023-05-23T01:55:53.433Z,1014.95
2023-05-23T01:56:53.377Z,1014.97
2023-05-23T01:57:53.438Z,1014.95
2023-05-23T01:58:53.336Z,1014.95
2023-05-23T01:59:53.346Z,1014.95
2023-05-23T02:00:53.416Z,1014.99
2023-05-23T02:01:53.368Z,1014.95
2023-05-23T02:02:53.392Z,1014.99
2023-05-23T02:03:53.295Z,1014.98
2023-05-23T02:04:53.204Z,1015.01
2023-05-23T02:05:53.198Z,1015.04
2023-05-23T02:06:53.168Z,1015.00
2023-05-23T02:07:53.197Z,1015.00
2023-05-23T02:08:53.122Z,1015.03
2023-05-23T02:09:53.214Z,1015.03
2023-05-23T02:10:53.094Z,1015.02
2023-05-23T02:11:53.086Z,1015.03
2023-05-23T02:12:53.150Z,1015.05
2023-05-23T02:13:53.030Z,1015.04
2023-05-23T02:14:53.050Z,1015.01
2023-05-23T02:15:52.979Z,1015.04
2023-05-23T02:16:54.108Z,1015.01
2023-05-23T02:17:52.990Z,1015.02
2023-05-23T02:18:53.137Z,1015.03
2023-05-23T02:19:52.902Z,1015.02
2023-05-23T02:20:52.897Z,1015.06
2023-05-23T02:21:52.847Z,1015.06
2023-05-23T02:22:52.897Z,1015.09
2023-05-23T02:23:52.808Z,1015.07
2023-05-23T02:24:52.809Z,1015.06
2023-05-23T02:25:52.765Z,1015.05
2023-05-23T02:26:52.835Z,1015.06
2023-05-23T02:27:52.734Z,1015.06
2023-05-23T02:28:52.706Z,1015.08
2023-05-23T02:29:52.677Z,1015.06
2023-05-23T02:30:52.777Z,1015.15
2023-05-23T02:31:52.648Z,1015.15
2023-05-23T02:32:52.784Z,1015.13
2023-05-23T02:33:52.593Z,1015.16
2023-05-23T02:34:53.737Z,1015.13
2023-05-23T02:35:52.553Z,1015.13
2023-05-23T02:36:52.590Z,1015.16
2023-05-23T02:37:52.528Z,1015.14
2023-05-23T02:38:52.503Z,1015.15
2023-05-23T02:39:52.469Z,1015.15
2023-05-23T02:40:52.447Z,1015.16
2023-05-23T02:41:52.529Z,1015.21
2023-05-23T02:42:52.425Z,1015.23
2023-05-23T02:43:52.438Z,1015.24
2023-05-23T02:44:52.367Z,1015.22
2023-05-23T02:45:52.363Z,1015.20
2023-05-23T02:46:52.316Z,1015.27
2023-05-23T02:47:52.508Z,1015.27
2023-05-23T02:48:52.366Z,1015.30
2023-05-23T02:49:52.280Z,1015.30
2023-05-23T02:50:52.230Z,1015.36
2023-05-23T02:51:52.206Z,1015.33
2023-05-23T02:52:52.200Z,1015.42
2023-05-23T02:53:52.202Z,1015.39
2023-05-23T02:54:52.140Z,1015.41
2023-05-23T02:55:52.224Z,1015.41
2023-05-23T02:56:52.101Z,1015.40
2023-05-23T02:57:52.073Z,1015.37
2023-05-23T02:58:52.134Z,1015.37
2023-05-23T02:59:52.034Z,1015.42
2023-05-23T03:00:52.051Z,1015.42
2023-05-23T03:01:52.041Z,1015.39
2023-05-23T03:02:52.124Z,1015.45
2023-05-23T03:03:51.986Z,1015.42
2023-05-23T03:04:52.086Z,1015.45
2023-05-23T03:05:51.928Z,1015.39
2023-05-23T03:06:52.011Z,1015.42
2023-05-23T03:07:51.899Z,1015.52
2023-05-23T03:08:51.915Z,1015.42
2023-05-23T03:09:51.859Z,1015.44
2023-05-23T03:10:51.933Z,1015.44
2023-05-23T03:11:51.818Z,1015.41
2023-05-23T03:12:51.840Z,1015.42
2023-05-23T03:13:51.776Z,1015.40
2023-05-23T03:14:51.778Z,1015.43
2023-05-23T03:15:51.784Z,1015.47
2023-05-23T03:16:51.780Z,1015.46
2023-05-23T03:17:51.738Z,1015.41
2023-05-23T03:18:51.697Z,1015.45
2023-05-23T03:19:51.650Z,1015.42
2023-05-23T03:20:51.730Z,1015.39
2023-05-23T03:21:51.703Z,1015.42
2023-05-23T03:22:51.594Z,1015.33
2023-05-23T03:23:51.639Z,1015.32
2023-05-23T03:24:51.562Z,1015.35
2023-05-23T03:25:51.531Z,1015.36
2023-05-23T03:26:51.491Z,1015.37
2023-05-23T03:27:51.537Z,1015.36
2023-05-23T03:28:51.456Z,1015.41
2023-05-23T03:29:51.456Z,1015.41
2023-05-23T03:30:51.401Z,1015.44
2023-05-23T03:31:51.501Z,1015.42
2023-05-23T03:32:51.401Z,1015.42
2023-05-23T03:33:51.382Z,1015.43
2023-05-23T03:34:51.322Z,1015.42
2023-05-23T03:35:51.407Z,1015.45
2023-05-23T03:36:51.380Z,1015.46
2023-05-23T03:37:51.263Z,1015.45
2023-05-23T03:38:51.230Z,1015.47
2023-05-23T03:39:51.321Z,1015.43
2023-05-23T03:40:51.189Z,1015.50
2023-05-23T03:41:51.261Z,1015.49
2023-05-23T03:42:51.153Z,1015.48
2023-05-23T03:43:51.129Z,1015.49
2023-05-23T03:44:51.104Z,1015.49
2023-05-23T03:45:51.195Z,1015.58
2023-05-23T03:46:51.072Z,1015.60
2023-05-23T03:47:51.105Z,1015.53
2023-05-23T03:48:51.017Z,1015.57
2023-05-23T03:49:50.994Z,1015.60
2023-05-23T03:50:50.972Z,1015.59
2023-05-23T03:51:51.004Z,1015.62
2023-05-23T03:52:51.033Z,1015.57
2023-05-23T03:53:51.011Z,1015.62
2023-05-23T03:54:50.886Z,1015.68
2023-05-23T03:55:50.868Z,1015.62
2023-05-23T03:56:50.930Z,1015.64
2023-05-23T03:57:50.832Z,1015.62
2023-05-23T03:58:50.845Z,1015.56
2023-05-23T03:59:50.773Z,1015.65
2023-05-23T04:00:50.766Z,1015.59
2023-05-23T04:01:50.732Z,1015.60
2023-05-23T04:02:50.908Z,1015.66
2023-05-23T04:03:50.735Z,1015.68
2023-05-23T04:04:50.681Z,1015.69
2023-05-23T04:05:50.649Z,1015.68
2023-05-23T04:06:50.624Z,1015.73
2023-05-23T04:07:50.613Z,1015.75
2023-05-23T04:08:50.711Z,1015.67
2023-05-23T04:09:50.571Z,1015.70
2023-05-23T04:10:50.644Z,1015.69
2023-05-23T04:11:50.524Z,1015.72
2023-05-23T04:12:50.503Z,1015.72
2023-05-23T04:13:50.574Z,1015.73
2023-05-23T04:14:50.461Z,1015.74
2023-05-23T04:15:50.503Z,1015.74
2023-05-23T04:16:50.409Z,1015.74
2023-05-23T04:17:50.506Z,1015.73
2023-05-23T04:18:50.416Z,1015.74
2023-05-23T04:19:50.382Z,1015.72
2023-05-23T04:20:50.327Z,1015.70
2023-05-23T04:21:50.289Z,1015.80
2023-05-23T04:22:50.270Z,1015.79
2023-05-23T04:23:50.232Z,1015.80
2023-05-23T04:24:50.298Z,1015.78
2023-05-23T04:25:50.213Z,1015.82
2023-05-23T04:26:50.174Z,1015.76
2023-05-23T04:27:50.244Z,1015.76
2023-05-23T04:28:50.109Z,1015.76
2023-05-23T04:29:50.097Z,1015.78
2023-05-23T04:30:50.112Z,1015.73
2023-05-23T04:31:50.240Z,1015.79
2023-05-23T04:32:50.111Z,1015.82
2023-05-23T04:33:50.065Z,1015.86
2023-05-23T04:34:49.987Z,1015.83
2023-05-23T04:35:49.964Z,1015.89
2023-05-23T04:36:49.987Z,1015.90
2023-05-23T04:37:49.927Z,1015.91
2023-05-23T04:38:50.028Z,1015.93
2023-05-23T04:39:49.876Z,1015.88
2023-05-23T04:40:50.004Z,1015.92
2023-05-23T04:41:49.830Z,1015.90
2023-05-23T04:42:49.926Z,1015.91
2023-05-23T04:43:49.787Z,1015.91
2023-05-23T04:44:49.849Z,1015.92
2023-05-23T04:45:49.742Z,1015.92
2023-05-23T04:46:49.776Z,1015.94
2023-05-23T04:47:49.727Z,1015.92
2023-05-23T04:48:49.774Z,1015.94
2023-05-23T04:49:49.659Z,1015.89
2023-05-23T04:50:49.680Z,1015.92
2023-05-23T04:51:49.607Z,1015.92
2023-05-23T04:52:49.605Z,1015.90
2023-05-23T04:53:49.591Z,1015.89
2023-05-23T04:54:49.612Z,1015.91
2023-05-23T04:55:49.546Z,1015.92
2023-05-23T04:56:49.612Z,1015.93
2023-05-23T04:57:49.516Z,1015.96
2023-05-23T04:58:49.474Z,1015.98
2023-05-23T04:59:49.540Z,1016.03
2023-05-23T05:00:49.495Z,1016.01
2023-05-23T05:01:49.453Z,1016.04
2023-05-23T05:02:49.431Z,1016.00
2023-05-23T05:03:49.409Z,1016.05
2023-05-23T05:04:49.352Z,1016.08
2023-05-23T05:05:49.385Z,1016.07
2023-05-23T05:06:49.282Z,1016.09
2023-05-23T05:07:49.290Z,1016.10
2023-05-23T05:08:49.240Z,1016.08
2023-05-23T05:09:49.225Z,1016.12
2023-05-23T05:10:49.195Z,1016.13
2023-05-23T05:11:49.225Z,1016.11
2023-05-23T05:12:49.261Z,1016.14
2023-05-23T05:13:49.238Z,1016.14
2023-05-23T05:14:49.115Z,1016.13
2023-05-23T05:15:49.102Z,1016.16
2023-05-23T05:16:49.185Z,1016.18
2023-05-23T05:17:50.063Z,1016.15
2023-05-23T05:18:49.116Z,1016.19
2023-05-23T05:19:49.003Z,1016.20
2023-05-23T05:20:49.085Z,1016.18
2023-05-23T05:21:48.971Z,1016.17
2023-05-23T05:22:48.987Z,1016.18
2023-05-23T05:23:48.915Z,1016.24
2023-05-23T05:24:49.004Z,1016.21
2023-05-23T05:25:48.869Z,1016.18
2023-05-23T05:26:48.929Z,1016.23
2023-05-23T05:27:48.842Z,1016.19
2023-05-23T05:28:48.921Z,1016.22
2023-05-23T05:29:48.796Z,1016.19
2023-05-23T05:30:48.884Z,1016.26
2023-05-23T05:31:48.739Z,1016.23
2023-05-23T05:32:48.746Z,1016.29
2023-05-23T05:33:48.696Z,1016.30
2023-05-23T05:34:49.621Z,1016.28
2023-05-23T05:35:48.649Z,1016.28
2023-05-23T05:36:48.681Z,1016.33
2023-05-23T05:37:48.633Z,1016.31
2023-05-23T05:38:48.596Z,1016.28
2023-05-23T05:39:48.566Z,1016.37
2023-05-23T05:40:48.606Z,1016.33
2023-05-23T05:41:48.540Z,1016.38
2023-05-23T05:42:48.640Z,1016.36
2023-05-23T05:43:48.476Z,1016.39
2023-05-23T05:44:48.554Z,1016.41
2023-05-23T05:45:48.548Z,1016.40
2023-05-23T05:46:48.533Z,1016.42
2023-05-23T05:47:48.484Z,1016.46
2023-05-23T05:48:48.385Z,1016.38
2023-05-23T05:49:49.392Z,1016.48
2023-05-23T05:50:48.342Z,1016.48
2023-05-23T05:51:48.381Z,1016.45
2023-05-23T05:52:48.300Z,1016.51
2023-05-23T05:53:48.289Z,1016.44
2023-05-23T05:54:48.277Z,1016.44
2023-05-23T05:55:48.231Z,1016.46
2023-05-23T05:56:48.232Z,1016.43
2023-05-23T05:57:48.219Z,1016.53
2023-05-23T05:58:48.185Z,1016.46
2023-05-23T05:59:48.244Z,1016.48
2023-05-23T06:00:48.208Z,1016.51
2023-05-23T06:01:48.092Z,1016.55
2023-05-23T06:02:48.126Z,1016.54
2023-05-23T06:03:48.387Z,1016.53
2023-05-23T06:04:48.055Z,1016.55
2023-05-23T06:05:48.102Z,1016.53
2023-05-23T06:06:48.178Z,1016.50
2023-05-23T06:07:47.976Z,1016.54
2023-05-23T06:08:48.020Z,1016.52
2023-05-23T06:09:48.007Z,1016.54
2023-05-23T06:10:48.066Z,1016.58
2023-05-23T06:11:47.922Z,1016.57
2023-05-23T06:12:47.968Z,1016.60
2023-05-23T06:13:47.841Z,1016.58
2023-05-23T06:14:47.933Z,1016.60
2023-05-23T06:15:47.858Z,1016.59
2023-05-23T06:16:48.242Z,1016.57
2023-05-23T06:17:47.787Z,1016.59
2023-05-23T06:18:47.733Z,1016.59
2023-05-23T06:19:47.702Z,1016.60
2023-05-23T06:20:47.830Z,1016.60
2023-05-23T06:21:47.661Z,1016.61
2023-05-23T06:22:47.750Z,1016.61
2023-05-23T06:23:47.689Z,1016.63
2023-05-23T06:24:47.598Z,1016.63
2023-05-23T06:25:47.578Z,1016.63
2023-05-23T06:26:47.666Z,1016.64
2023-05-23T06:27:47.540Z,1016.63
2023-05-23T06:28:47.590Z,1016.62
2023-05-23T06:29:47.488Z,1016.58
2023-05-23T06:30:47.463Z,1016.63
2023-05-23T06:31:47.616Z,1016.64
2023-05-23T06:32:47.487Z,1016.67
2023-05-23T06:33:47.529Z,1016.68
2023-05-23T06:34:47.371Z,1016.68
2023-05-23T06:35:47.370Z,1016.69
2023-05-23T06:36:47.350Z,1016.70
2023-05-23T06:37:47.439Z,1016.70
2023-05-23T06:38:47.298Z,1016.72
2023-05-23T06:39:47.366Z,1016.74
2023-05-23T06:40:47.251Z,1016.70
2023-05-23T06:41:47.258Z,1016.75
2023-05-23T06:42:47.219Z,1016.73
2023-05-23T06:43:47.280Z,1016.74
2023-05-23T06:44:47.229Z,1016.76
2023-05-23T06:45:47.385Z,1016.77
2023-05-23T06:46:47.131Z,1016.80
2023-05-23T06:47:47.143Z,1016.85
2023-05-23T06:48:47.221Z,1016.82
2023-05-23T06:49:47.072Z,1016.85
2023-05-23T06:50:47.139Z,1016.86
2023-05-23T06:51:47.088Z,1016.85
2023-05-23T06:52:47.182Z,1016.81
2023-05-23T06:53:46.975Z,1016.87
2023-05-23T06:54:47.061Z,1016.84
2023-05-23T06:55:46.927Z,1016.84
2023-05-23T06:56:47.060Z,1016.88
2023-05-23T06:57:46.891Z,1016.84
2023-05-23T06:58:47.235Z,1016.88
2023-05-23T06:59:46.844Z,1016.91
2023-05-23T07:00:46.969Z,1016.93
2023-05-23T07:01:47.022Z,1016.88
2023-05-23T07:02:46.944Z,1016.91
2023-05-23T07:03:46.761Z,1016.95
2023-05-23T07:04:46.881Z,1016.97
2023-05-23T07:05:46.779Z,1016.94
2023-05-23T07:06:46.847Z,1017.00
2023-05-23T07:07:46.685Z,1016.95
2023-05-23T07:08:46.693Z,1016.99
2023-05-23T07:09:46.646Z,1017.06
2023-05-23T07:10:46.618Z,1017.01
2023-05-23T07:11:46.675Z,1017.03
2023-05-23T07:12:46.589Z,1017.04
2023-05-23T07:13:46.670Z,1017.07
2023-05-23T07:14:46.528Z,1017.06
2023-05-23T07:15:46.600Z,1017.07
2023-05-23T07:16:46.535Z,1017.10
2023-05-23T07:17:46.653Z,1017.08
2023-05-23T07:18:46.473Z,1017.12
2023-05-23T07:19:46.527Z,1017.14
2023-05-23T07:20:48.112Z,1017.19
2023-05-23T07:21:46.380Z,1017.17
2023-05-23T07:22:46.364Z,1017.15
2023-05-23T07:23:46.439Z,1017.14
2023-05-23T07:24:46.316Z,1017.13
2023-05-23T07:26:00.588Z,1017.18
2023-05-23T07:26:46.270Z,1017.24
2023-05-23T07:27:46.264Z,1017.24
2023-05-23T07:28:46.217Z,1017.19
2023-05-23T07:29:46.291Z,1017.23
2023-05-23T07:30:46.243Z,1017.25
2023-05-23T07:31:46.367Z,1017.25
2023-05-23T07:32:46.184Z,1017.24
2023-05-23T07:33:46.122Z,1017.28
2023-05-23T07:34:46.226Z,1017.26
2023-05-23T07:35:46.065Z,1017.29
2023-05-23T07:36:46.135Z,1017.36
2023-05-23T07:37:47.071Z,1017.33
2023-05-23T07:38:46.009Z,1017.31
2023-05-23T07:39:45.987Z,1017.34
2023-05-23T07:40:55.378Z,1017.33
2023-05-23T07:41:45.949Z,1017.38
2023-05-23T07:42:46.088Z,1017.35
2023-05-23T07:43:45.894Z,1017.40
2023-05-23T07:44:45.878Z,1017.36
2023-05-23T07:45:45.850Z,1017.42
2023-05-23T07:46:45.898Z,1017.42
2023-05-23T07:47:45.853Z,1017.44
2023-05-23T07:48:45.912Z,1017.42
2023-05-23T07:49:45.759Z,1017.46
2023-05-23T07:50:45.742Z,1017.48
2023-05-23T07:51:45.817Z,1017.47
2023-05-23T07:52:45.709Z,1017.45
2023-05-23T07:53:45.728Z,1017.49
2023-05-23T07:54:45.648Z,1017.46
2023-05-23T07:55:45.757Z,1017.48
2023-05-23T07:56:45.620Z,1017.50
2023-05-23T07:57:45.663Z,1017.53
2023-05-23T07:58:45.571Z,1017.48
2023-05-23T07:59:45.687Z,1017.48
2023-05-23T08:00:45.600Z,1017.54
2023-05-23T08:01:45.568Z,1017.51
2023-05-23T08:02:45.513Z,1017.52
2023-05-23T08:03:45.494Z,1017.50
2023-05-23T08:04:45.466Z,1017.54
2023-05-23T08:05:45.515Z,1017.58
2023-05-23T08:06:56.323Z,1017.48
2023-05-23T08:07:45.402Z,1017.51
2023-05-23T08:08:45.433Z,1017.56
2023-05-23T08:09:45.338Z,1017.53
2023-05-23T08:10:45.342Z,1017.56
2023-05-23T08:11:45.287Z,1017.56
2023-05-23T08:12:45.365Z,1017.58
2023-05-23T08:13:45.241Z,1017.63
2023-05-23T08:14:51.562Z,1017.58
2023-05-23T08:15:45.193Z,1017.64
2023-05-23T08:16:45.330Z,1017.63
2023-05-23T08:17:45.200Z,1017.66
2023-05-23T08:18:45.143Z,1017.67
2023-05-23T08:19:45.130Z,1017.67
2023-05-23T08:20:45.180Z,1017.71
2023-05-23T08:21:45.072Z,1017.69
2023-05-23T08:22:45.088Z,1017.67
2023-05-23T08:23:45.026Z,1017.71
2023-05-23T08:24:45.010Z,1017.74
2023-05-23T08:25:44.984Z,1017.74
2023-05-23T08:26:45.020Z,1017.75
2023-05-23T08:27:44.976Z,1017.77
2023-05-23T08:28:45.037Z,1017.78
2023-05-23T08:29:44.950Z,1017.77
2023-05-23T08:30:44.872Z,1017.77
2023-05-23T08:31:44.970Z,1017.80
2023-05-23T08:32:44.869Z,1017.87
2023-05-23T08:33:44.867Z,1017.82
2023-05-23T08:34:44.781Z,1017.81
2023-05-23T08:35:44.783Z,1017.85
2023-05-23T08:36:44.739Z,1017.88
2023-05-23T08:37:44.788Z,1017.86
2023-05-23T08:38:44.703Z,1017.87
2023-05-23T08:39:44.696Z,1017.88
2023-05-23T08:40:44.689Z,1017.92
2023-05-23T08:41:44.629Z,1017.81
2023-05-23T08:42:44.640Z,1017.91
2023-05-23T08:43:44.623Z,1017.85
2023-05-23T08:44:44.580Z,1017.86
2023-05-23T08:45:44.596Z,1017.86
2023-05-23T08:46:44.731Z,1017.89
2023-05-23T08:47:44.539Z,1017.93
2023-05-23T08:48:44.494Z,1017.93
2023-05-23T08:49:44.498Z,1018.02
2023-05-23T08:50:44.436Z,1017.98
2023-05-23T08:51:44.528Z,1018.01
2023-05-23T08:52:44.408Z,1018.07
2023-05-23T08:53:44.426Z,1018.07
2023-05-23T08:54:44.352Z,1018.10
2023-05-23T08:55:44.438Z,1018.09
2023-05-23T08:56:44.307Z,1018.14
2023-05-23T08:57:44.357Z,1018.14
2023-05-23T08:58:44.367Z,1018.24
2023-05-23T08:59:44.243Z,1018.24
2023-05-23T09:00:44.541Z,1018.18
2023-05-23T09:01:44.250Z,1018.25
2023-05-23T09:02:44.329Z,1018.25
2023-05-23T09:03:44.771Z,1018.21
2023-05-23T09:04:44.137Z,1018.27
2023-05-23T09:05:44.151Z,1018.26
2023-05-23T09:06:44.137Z,1018.27
2023-05-23T09:07:44.084Z,1018.26
2023-05-23T09:08:44.124Z,1018.35
2023-05-23T09:09:44.108Z,1018.38
2023-05-23T09:10:44.017Z,1018.34
2023-05-23T09:11:44.046Z,1018.36
2023-05-23T09:12:43.979Z,1018.34
2023-05-23T09:13:43.955Z,1018.38
2023-05-23T09:14:43.937Z,1018.38
2023-05-23T09:15:43.907Z,1018.42
2023-05-23T09:16:43.961Z,1018.40
2023-05-23T09:17:43.934Z,1018.47
2023-05-23T09:18:43.866Z,1018.49
2023-05-23T09:19:43.891Z,1018.43
2023-05-23T09:20:43.786Z,1018.43
2023-05-23T09:21:43.765Z,1018.48
2023-05-23T09:22:43.831Z,1018.47
2023-05-23T09:23:43.720Z,1018.51
2023-05-23T09:24:43.739Z,1018.51
2023-05-23T09:25:43.694Z,1018.52
2023-05-23T09:26:43.756Z,1018.52
2023-05-23T09:27:46.682Z,1018.56
2023-05-23T09:28:43.656Z,1018.56
2023-05-23T09:29:43.616Z,1018.56
2023-05-23T09:30:43.689Z,1018.60
2023-05-23T09:31:43.566Z,1018.53
2023-05-23T09:32:43.578Z,1018.57
2023-05-23T09:33:43.519Z,1018.58
2023-05-23T09:34:43.562Z,1018.59
2023-05-23T09:35:43.460Z,1018.52
2023-05-23T09:36:43.485Z,1018.57
2023-05-23T09:37:43.437Z,1018.56
2023-05-23T09:38:43.396Z,1018.57
2023-05-23T09:39:43.412Z,1018.55
2023-05-23T09:40:43.428Z,1018.60
2023-05-23T09:41:43.330Z,1018.64
2023-05-23T09:42:43.413Z,1018.59
2023-05-23T09:43:43.300Z,1018.57
2023-05-23T09:44:43.268Z,1018.61
2023-05-23T09:45:43.346Z,1018.64
2023-05-23T09:46:43.252Z,1018.61
2023-05-23T09:47:43.291Z,1018.58
2023-05-23T09:48:43.202Z,1018.61
2023-05-23T09:49:43.287Z,1018.62
2023-05-23T09:50:43.229Z,1018.61
2023-05-23T09:51:43.176Z,1018.54
2023-05-23T09:52:43.103Z,1018.54
2023-05-23T09:53:43.090Z,1018.58
2023-05-23T09:54:43.050Z,1018.59
2023-05-23T09:55:43.028Z,1018.61
2023-05-23T09:56:43.016Z,1018.62
2023-05-23T09:57:43.015Z,1018.59
2023-05-23T09:58:42.960Z,1018.63
2023-05-23T09:59:43.043Z,1018.63
2023-05-23T10:00:43.148Z,1018.60
2023-05-23T10:01:42.943Z,1018.60
2023-05-23T10:02:42.981Z,1018.58
2023-05-23T10:03:42.888Z,1018.65
2023-05-23T10:04:42.939Z,1018.61
2023-05-23T10:05:42.821Z,1018.59
2023-05-23T10:06:42.883Z,1018.52
2023-05-23T10:07:42.790Z,1018.55
2023-05-23T10:08:42.825Z,1018.52
2023-05-23T10:09:42.731Z,1018.54
2023-05-23T10:10:42.908Z,1018.54
2023-05-23T10:11:42.692Z,1018.54
2023-05-23T10:12:42.674Z,1018.56
2023-05-23T10:13:42.667Z,1018.56
2023-05-23T10:14:42.735Z,1018.58
2023-05-23T10:15:42.635Z,1018.59
2023-05-23T10:16:42.822Z,1018.54
2023-05-23T10:17:42.606Z,1018.54
2023-05-23T10:18:42.554Z,1018.57
2023-05-23T10:19:42.603Z,1018.54
2023-05-23T10:20:42.801Z,1018.50
2023-05-23T10:21:44.723Z,1018.51
2023-05-23T10:22:42.495Z,1018.55
2023-05-23T10:23:42.533Z,1018.51
2023-05-23T10:24:42.474Z,1018.49
2023-05-23T10:25:42.427Z,1018.48
2023-05-23T10:26:42.423Z,1018.58
2023-05-23T10:27:42.438Z,1018.52
2023-05-23T10:28:42.365Z,1018.50
2023-05-23T10:29:42.365Z,1018.50
2023-05-23T10:30:42.583Z,1018.49
2023-05-23T10:31:42.568Z,1018.50
2023-05-23T10:32:42.312Z,1018.49
2023-05-23T10:33:42.277Z,1018.56
2023-05-23T10:34:42.262Z,1018.55
2023-05-23T10:35:42.384Z,1018.57
2023-05-23T10:36:42.201Z,1018.52
2023-05-23T10:37:42.308Z,1018.49
2023-05-23T10:38:42.162Z,1018.56
2023-05-23T10:39:42.219Z,1018.55
2023-05-23T10:40:42.319Z,1018.55
2023-05-23T10:41:42.110Z,1018.59
2023-05-23T10:42:42.114Z,1018.56
2023-05-23T10:43:42.146Z,1018.55
2023-05-23T10:44:42.049Z,1018.54
2023-05-23T10:45:42.092Z,1018.59
2023-05-23T10:46:42.062Z,1018.58
2023-05-23T10:47:42.017Z,1018.64
2023-05-23T10:48:42.079Z,1018.65
2023-05-23T10:49:41.988Z,1018.62
2023-05-23T10:50:42.528Z,1018.67
2023-05-23T10:51:41.910Z,1018.65
2023-05-23T10:52:41.999Z,1018.68
2023-05-23T10:53:41.883Z,1018.67
2023-05-23T10:54:41.944Z,1018.66
2023-05-23T10:55:41.850Z,1018.67
2023-05-23T10:56:41.927Z,1018.67
2023-05-23T10:57:41.818Z,1018.66
2023-05-23T10:58:41.784Z,1018.66
2023-05-23T10:59:41.763Z,1018.59
2023-05-23T11:00:42.026Z,1018.63
2023-05-23T11:01:41.821Z,1018.63
2023-05-23T11:02:41.785Z,1018.68
2023-05-23T11:03:41.886Z,1018.71
2023-05-23T11:04:41.677Z,1018.75
2023-05-23T11:05:41.689Z,1018.77
2023-05-23T11:06:41.632Z,1018.73
2023-05-23T11:07:41.707Z,1018.77
2023-05-23T11:08:47.550Z,1018.82
2023-05-23T11:09:41.574Z,1018.75
2023-05-23T11:10:41.822Z,1018.80
2023-05-23T11:11:41.648Z,1018.81
2023-05-23T11:12:41.537Z,1018.82
2023-05-23T11:13:41.554Z,1018.87
2023-05-23T11:14:41.477Z,1018.93
2023-05-23T11:15:41.569Z,1018.90
2023-05-23T11:16:41.632Z,1018.81
2023-05-23T11:17:41.515Z,1018.82
2023-05-23T11:18:41.559Z,1018.88
2023-05-23T11:19:41.559Z,1018.87
2023-05-23T11:20:41.731Z,1018.89
2023-05-23T11:21:41.414Z,1018.95
2023-05-23T11:22:41.411Z,1018.85
2023-05-23T11:23:41.406Z,1018.90
2023-05-23T11:24:41.313Z,1018.83
2023-05-23T11:25:41.291Z,1018.76
2023-05-23T11:26:41.256Z,1018.76
2023-05-23T11:27:41.360Z,1018.77
2023-05-23T11:28:41.363Z,1018.80
2023-05-23T11:29:41.246Z,1018.81
2023-05-23T11:30:41.413Z,1018.78
2023-05-23T11:31:41.180Z,1018.79
2023-05-23T11:32:41.235Z,1018.82
2023-05-23T11:33:41.180Z,1018.80
2023-05-23T11:34:41.107Z,1018.81
2023-05-23T11:35:41.197Z,1018.84
2023-05-23T11:36:41.084Z,1018.88
2023-05-23T11:37:41.075Z,1018.85
2023-05-23T11:38:41.037Z,1018.88
2023-05-23T11:39:41.120Z,1018.93
2023-05-23T11:40:41.415Z,1018.89
2023-05-23T11:41:41.030Z,1018.91
2023-05-23T11:42:40.976Z,1018.89
2023-05-23T11:43:40.948Z,1018.86
2023-05-23T11:44:40.947Z,1018.88
2023-05-23T11:45:40.985Z,1018.92
2023-05-23T11:46:40.961Z,1018.98
2023-05-23T11:47:40.938Z,1018.90
2023-05-23T11:48:40.864Z,1018.96
2023-05-23T11:49:40.833Z,1019.03
2023-05-23T11:50:41.509Z,1018.95
2023-05-23T11:51:40.796Z,1018.95
2023-05-23T11:52:40.812Z,1018.97
2023-05-23T11:53:40.757Z,1019.00
2023-05-23T11:54:40.784Z,1018.98
2023-05-23T11:55:40.742Z,1019.01
2023-05-23T11:56:40.726Z,1019.01
2023-05-23T11:57:40.698Z,1018.99
2023-05-23T11:58:40.747Z,1019.16
2023-05-23T11:59:40.655Z,1018.95
2023-05-23T12:00:40.807Z,1019.05
2023-05-23T12:01:40.662Z,1019.06
2023-05-23T12:02:40.699Z,1019.14
2023-05-23T12:03:40.794Z,1019.12
2023-05-23T12:04:40.579Z,1019.09
2023-05-23T12:05:40.585Z,1019.07